createdAt,value
2022-09-09T00:00:34.037Z,2.75
2022-09-09T00:03:40.617Z,2.85
2022-09-09T00:06:29.945Z,3.00
2022-09-09T00:09:35.529Z,2.63
2022-09-09T00:12:18.485Z,2.78
2022-09-09T00:15:25.797Z,3.15
2022-09-09T00:18:13.103Z,2.45
2022-09-09T00:21:10.764Z,3.42
2022-09-09T00:23:55.696Z,3.88
2022-09-09T00:26:59.039Z,3.75
2022-09-09T00:30:00.769Z,3.00
2022-09-09T00:32:40.606Z,3.15
2022-09-09T00:35:28.586Z,3.05
2022-09-09T00:38:03.719Z,2.63
2022-09-09T00:40:50.474Z,3.38
2022-09-09T00:43:45.048Z,2.45
2022-09-09T00:50:11.655Z,2.67
2022-09-09T00:53:31.602Z,2.25
2022-09-09T00:56:23.086Z,3.10
2022-09-09T00:59:17.581Z,2.53
2022-09-09T01:01:53.342Z,2.53
2022-09-09T01:04:39.870Z,2.97
2022-09-09T01:07:40.282Z,2.55
2022-09-09T01:10:31.342Z,3.17
2022-09-09T01:13:18.781Z,2.90
2022-09-09T01:15:58.527Z,3.33
2022-09-09T01:19:00.899Z,2.47
2022-09-09T01:22:03.107Z,2.05
2022-09-09T01:25:19.909Z,2.20
2022-09-09T01:28:30.518Z,2.85
2022-09-09T01:31:19.909Z,2.70
2022-09-09T01:33:58.951Z,2.63
2022-09-09T01:36:58.084Z,2.23
2022-09-09T01:39:38.645Z,3.27
2022-09-09T01:42:16.117Z,2.13
2022-09-09T01:44:59.771Z,2.47
2022-09-09T01:47:38.975Z,1.88
2022-09-09T01:50:23.461Z,2.53
2022-09-09T01:53:02.222Z,2.95
2022-09-09T01:55:46.482Z,2.37
2022-09-09T01:58:52.627Z,2.42
2022-09-09T02:02:14.634Z,2.72
2022-09-09T02:04:54.822Z,2.47
2022-09-09T02:07:55.832Z,2.97
2022-09-09T02:10:44.417Z,2.80
2022-09-09T02:13:22.520Z,3.10
2022-09-09T02:16:45.377Z,2.85
2022-09-09T02:20:10.879Z,2.15
2022-09-09T02:22:53.950Z,2.70
2022-09-09T02:25:36.946Z,2.50
2022-09-09T02:28:21.134Z,2.42
2022-09-09T02:31:01.435Z,1.73
2022-09-09T02:33:46.127Z,2.50
2022-09-09T02:36:27.670Z,2.08
2022-09-09T02:39:16.123Z,1.65
2022-09-09T02:42:03.061Z,2.40
2022-09-09T02:44:48.265Z,1.73
2022-09-09T02:48:13.672Z,1.80
2022-09-09T02:51:10.568Z,1.92
2022-09-09T02:54:02.811Z,1.77
2022-09-09T02:56:49.593Z,1.52
2022-09-09T02:59:20.487Z,2.03
2022-09-09T03:01:52.168Z,1.98
2022-09-09T03:04:22.441Z,1.83
2022-09-09T03:06:56.549Z,1.92
2022-09-09T03:09:26.899Z,1.80
2022-09-09T03:14:42.896Z,1.73
2022-09-09T03:17:17.847Z,1.35
2022-09-09T03:19:59.114Z,1.10
2022-09-09T03:22:39.601Z,1.70
2022-09-09T03:27:57.787Z,1.40
2022-09-09T03:30:36.199Z,1.40
2022-09-09T03:33:08.061Z,1.53
2022-09-09T03:35:39.378Z,1.50
2022-09-09T03:38:17.462Z,1.43
2022-09-09T03:41:01.149Z,1.10
2022-09-09T03:43:38.695Z,0.95
2022-09-09T03:46:15.506Z,1.20
2022-09-09T03:48:50.833Z,1.35
2022-09-09T03:51:28.413Z,1.10
2022-09-09T03:53:59.585Z,1.17
2022-09-09T03:56:34.075Z,0.90
2022-09-09T03:59:05.721Z,1.05
2022-09-09T04:01:41.219Z,1.05
2022-09-09T04:04:23.666Z,1.30
2022-09-09T04:07:01.266Z,0.83
2022-09-09T04:09:39.210Z,1.25
2022-09-09T04:12:11.747Z,0.98
2022-09-09T04:14:46.016Z,0.70
2022-09-09T04:17:16.514Z,1.08
2022-09-09T04:19:53.364Z,0.80
2022-09-09T04:22:28.674Z,0.75
2022-09-09T04:24:59.649Z,0.73
2022-09-09T04:27:32.399Z,1.20
2022-09-09T04:30:07.157Z,1.20
2022-09-09T04:32:49.453Z,0.70
2022-09-09T04:35:25.930Z,0.90
2022-09-09T04:37:57.477Z,0.93
2022-09-09T04:40:28.281Z,0.77
2022-09-09T04:43:12.590Z,0.88
2022-09-09T04:46:03.763Z,0.68
2022-09-09T04:48:39.060Z,0.70
2022-09-09T04:51:15.975Z,0.68
2022-09-09T04:53:48.751Z,0.85
2022-09-09T04:56:25.735Z,0.60
2022-09-09T04:59:07.657Z,0.93
2022-09-09T05:01:45.186Z,0.70
2022-09-09T05:04:20.758Z,0.60
2022-09-09T05:07:10.069Z,0.70
2022-09-09T05:09:42.208Z,0.68
2022-09-09T05:12:16.435Z,0.80
2022-09-09T05:14:59.035Z,0.65
2022-09-09T05:17:39.726Z,0.63
2022-09-09T05:20:10.711Z,0.90
2022-09-09T05:22:43.881Z,0.52
2022-09-09T05:25:13.294Z,0.93
2022-09-09T05:27:42.805Z,0.60
2022-09-09T05:30:17.292Z,0.85
2022-09-09T05:32:49.151Z,0.43
2022-09-09T05:35:22.432Z,0.77
2022-09-09T05:40:39.804Z,0.98
2022-09-09T05:43:19.502Z,0.90
2022-09-09T05:45:56.555Z,1.23
2022-09-09T05:48:29.648Z,1.30
2022-09-09T05:51:00.275Z,1.90
2022-09-09T05:53:36.970Z,1.23
2022-09-09T05:56:21.618Z,1.10
2022-09-09T05:58:57.904Z,1.40
2022-09-09T06:01:34.245Z,1.35
2022-09-09T06:04:11.087Z,1.10
2022-09-09T06:06:51.546Z,1.30
2022-09-09T06:09:35.052Z,1.00
2022-09-09T06:12:07.316Z,1.20
2022-09-09T06:14:46.436Z,0.88
2022-09-09T06:17:24.729Z,1.40
2022-09-09T06:19:58.294Z,1.17
2022-09-09T06:22:37.141Z,1.15
2022-09-09T06:25:09.661Z,1.05
2022-09-09T06:27:44.137Z,1.33
2022-09-09T06:30:23.722Z,1.00
2022-09-09T06:33:05.739Z,1.60
2022-09-09T06:35:40.966Z,1.20
2022-09-09T06:38:26.993Z,1.13
2022-09-09T06:41:05.075Z,1.00
2022-09-09T06:43:43.946Z,1.25
2022-09-09T06:46:27.221Z,0.85
2022-09-09T06:51:34.391Z,0.75
2022-09-09T06:54:13.911Z,1.00
2022-09-09T06:56:49.675Z,1.33
2022-09-09T06:59:26.594Z,1.98
2022-09-09T07:02:00.880Z,1.13
2022-09-09T07:04:36.075Z,1.50
2022-09-09T07:07:19.960Z,1.17
2022-09-09T07:09:59.167Z,1.60
2022-09-09T07:12:34.454Z,1.40
2022-09-09T07:15:06.039Z,1.17
2022-09-09T07:17:37.517Z,0.98
2022-09-09T07:20:09.244Z,1.25
2022-09-09T07:22:41.380Z,0.60
2022-09-09T07:25:19.946Z,1.73
2022-09-09T07:27:57.253Z,0.98
2022-09-09T07:30:27.743Z,1.20
2022-09-09T07:33:08.850Z,0.60
2022-09-09T07:35:43.495Z,0.68
2022-09-09T07:38:20.365Z,0.75
2022-09-09T07:40:53.192Z,0.90
2022-09-09T07:43:35.243Z,1.08
2022-09-09T07:46:09.168Z,0.80
2022-09-09T07:48:41.146Z,1.10
2022-09-09T07:51:23.381Z,0.52
2022-09-09T07:54:12.281Z,0.77
2022-09-09T07:56:52.625Z,0.77
2022-09-09T07:59:35.509Z,0.73
2022-09-09T08:02:10.898Z,0.90
2022-09-09T08:04:46.479Z,0.90
2022-09-09T08:07:19.679Z,0.70
2022-09-09T08:09:57.421Z,0.52
2022-09-09T08:12:40.288Z,0.50
2022-09-09T08:15:13.978Z,0.30
2022-09-09T08:17:48.272Z,0.63
2022-09-09T08:20:22.549Z,0.45
2022-09-09T08:23:01.917Z,0.80
2022-09-09T08:25:35.878Z,0.63
2022-09-09T08:28:19.240Z,0.45
2022-09-09T08:30:58.169Z,0.57
2022-09-09T08:33:28.776Z,0.60
2022-09-09T08:36:03.679Z,0.82
2022-09-09T08:38:39.421Z,0.50
2022-09-09T08:41:51.069Z,0.70
2022-09-09T08:44:48.233Z,0.55
2022-09-09T08:48:03.908Z,0.40
2022-09-09T08:50:39.677Z,0.60
2022-09-09T08:53:38.774Z,0.47
2022-09-09T08:56:31.757Z,0.45
2022-09-09T08:59:14.956Z,1.42
2022-09-09T09:02:16.502Z,0.50
2022-09-09T09:05:21.340Z,0.60
2022-09-09T09:08:47.036Z,0.30
2022-09-09T09:11:29.637Z,0.45
2022-09-09T09:14:11.715Z,0.60
2022-09-09T09:17:31.721Z,0.60
2022-09-09T09:20:09.024Z,0.65
2022-09-09T09:23:16.238Z,0.85
2022-09-09T09:25:53.961Z,0.32
2022-09-09T09:28:49.342Z,0.25
2022-09-09T09:31:31.926Z,0.38
2022-09-09T09:34:09.448Z,0.15
2022-09-09T09:36:54.965Z,0.45
2022-09-09T09:42:43.462Z,0.40
2022-09-09T09:45:43.905Z,0.57
2022-09-09T09:48:17.509Z,0.30
2022-09-09T09:51:17.995Z,0.20
2022-09-09T09:53:47.842Z,0.43
2022-09-09T09:56:19.861Z,0.30
2022-09-09T10:01:46.856Z,0.38
2022-09-09T10:04:27.571Z,0.38
2022-09-09T10:07:07.969Z,0.47
2022-09-09T10:09:50.842Z,0.35
2022-09-09T10:13:14.668Z,0.40
2022-09-09T10:16:08.238Z,0.60
2022-09-09T10:19:08.207Z,0.30
2022-09-09T10:22:36.784Z,0.30
2022-09-09T10:25:29.504Z,0.45
2022-09-09T10:28:26.024Z,0.25
2022-09-09T10:31:34.921Z,0.20
2022-09-09T10:34:31.623Z,0.30
2022-09-09T10:37:06.871Z,0.28
2022-09-09T10:39:47.110Z,0.30
2022-09-09T10:42:27.922Z,0.50
2022-09-09T10:45:08.457Z,0.20
2022-09-09T10:48:09.410Z,0.40
2022-09-09T10:51:03.504Z,0.30
2022-09-09T10:54:06.170Z,0.50
2022-09-09T10:56:56.113Z,0.55
2022-09-09T10:59:37.455Z,0.40
2022-09-09T11:02:30.046Z,0.52
2022-09-09T11:05:23.119Z,0.30
2022-09-09T11:11:22.467Z,0.32
2022-09-09T11:14:40.015Z,0.90
2022-09-09T11:17:35.154Z,0.65
2022-09-09T11:20:09.653Z,0.88
2022-09-09T11:23:05.603Z,0.68
2022-09-09T11:25:51.439Z,0.70
2022-09-09T11:29:06.791Z,0.50
2022-09-09T11:31:54.159Z,0.70
2022-09-09T11:34:57.739Z,0.60
2022-09-09T11:38:12.469Z,0.70
2022-09-09T11:40:44.984Z,0.63
2022-09-09T11:43:26.307Z,0.35
2022-09-09T11:46:05.610Z,0.60
2022-09-09T11:48:49.802Z,0.57
2022-09-09T11:51:30.238Z,0.55
2022-09-09T11:54:30.685Z,0.55
2022-09-09T11:57:07.980Z,0.63
2022-09-09T11:59:37.971Z,0.80
2022-09-09T12:02:35.139Z,0.35
2022-09-09T12:05:22.912Z,0.50
2022-09-09T12:08:11.839Z,0.60
2022-09-09T12:10:42.931Z,0.68
2022-09-09T12:13:32.259Z,0.60
2022-09-09T12:16:06.270Z,1.00
2022-09-09T12:18:40.616Z,0.40
2022-09-09T12:21:44.424Z,0.70
2022-09-09T12:27:48.973Z,0.90
2022-09-09T12:30:22.104Z,0.50
2022-09-09T12:33:19.650Z,1.17
2022-09-09T12:36:04.124Z,0.77
2022-09-09T12:38:42.195Z,0.57
2022-09-09T12:41:43.898Z,1.05
2022-09-09T12:46:58.424Z,0.32
2022-09-09T12:49:40.431Z,0.50
2022-09-09T12:52:49.493Z,0.50
2022-09-09T12:55:29.946Z,0.50
2022-09-09T12:58:11.446Z,0.38
2022-09-09T13:03:21.423Z,0.30
2022-09-09T13:05:57.152Z,0.43
2022-09-09T13:08:38.866Z,0.40
2022-09-09T13:11:53.485Z,0.77
2022-09-09T13:14:48.647Z,0.63
2022-09-09T13:17:48.652Z,0.40
2022-09-09T13:20:24.240Z,0.50
2022-09-09T13:23:05.984Z,0.45
2022-09-09T13:25:40.655Z,0.43
2022-09-09T13:28:27.215Z,0.47
2022-09-09T13:31:22.324Z,0.50
2022-09-09T13:34:04.593Z,0.80
2022-09-09T13:36:35.652Z,0.73
2022-09-09T13:39:26.749Z,0.40
2022-09-09T13:41:59.766Z,0.50
2022-09-09T13:44:36.961Z,0.68
2022-09-09T13:47:31.975Z,0.70
2022-09-09T13:50:33.847Z,0.43
2022-09-09T13:53:18.205Z,0.80
2022-09-09T13:55:53.179Z,0.50
2022-09-09T13:58:25.946Z,0.60
2022-09-09T14:00:59.606Z,0.50
2022-09-09T14:03:30.049Z,0.50
2022-09-09T14:06:00.601Z,0.80
2022-09-09T14:08:41.417Z,0.70
2022-09-09T14:11:18.080Z,0.50
2022-09-09T14:13:48.529Z,0.50
2022-09-09T14:16:19.271Z,0.60
2022-09-09T14:18:51.805Z,0.63
2022-09-09T14:21:24.014Z,0.95
2022-09-09T14:24:10.511Z,0.47
2022-09-09T14:26:39.998Z,0.70
2022-09-09T14:29:47.474Z,0.60
2022-09-09T14:32:30.599Z,0.70
2022-09-09T14:35:02.920Z,0.60
2022-09-09T14:40:06.159Z,0.50
2022-09-09T14:42:45.118Z,0.98
2022-09-09T14:45:24.980Z,0.45
2022-09-09T14:50:59.699Z,0.38
2022-09-09T14:53:36.076Z,0.43
2022-09-09T14:56:14.968Z,0.82
2022-09-09T14:58:45.043Z,0.63
2022-09-09T15:01:16.933Z,0.80
2022-09-09T15:04:01.387Z,0.60
2022-09-09T15:06:32.993Z,0.75
2022-09-09T15:09:06.490Z,0.50
2022-09-09T15:11:47.857Z,0.50
2022-09-09T15:14:16.624Z,0.50
2022-09-09T15:16:56.807Z,0.50
2022-09-09T15:19:27.983Z,0.47
2022-09-09T15:22:00.760Z,0.40
2022-09-09T15:24:33.119Z,0.43
2022-09-09T15:27:15.005Z,0.50
2022-09-09T15:29:49.200Z,0.50
2022-09-09T15:32:32.864Z,0.43
2022-09-09T15:35:16.353Z,0.38
2022-09-09T15:37:51.188Z,0.60
2022-09-09T15:40:24.104Z,0.40
2022-09-09T15:43:03.314Z,0.40
2022-09-09T15:45:37.526Z,1.05
2022-09-09T15:48:11.772Z,0.60
2022-09-09T15:50:43.686Z,0.63
2022-09-09T15:53:25.070Z,0.40
2022-09-09T15:56:02.611Z,0.50
2022-09-09T15:58:39.090Z,0.57
2022-09-09T16:01:09.598Z,0.60
2022-09-09T16:03:50.792Z,0.80
2022-09-09T16:06:31.596Z,0.60
2022-09-09T16:09:19.743Z,0.50
2022-09-09T16:11:49.088Z,0.60
2022-09-09T16:14:25.196Z,0.80
